Thunderstorms From: 15-12-2017 06:00 Until: 16-12-2017 06:00 warning for: Thunderstorms Level: Yellow info button

Although rather usual in this region, locally or potentially dangerous phenomena are expected. (such as local winds, summer thunderstorms, rising streams or high waves) Be aware and pay attention to the latest weather updates, especially if you carry out activities exposed to weather or close to a stream or shoreline. 


Meteo18 Weather Cam more information Meteo18 Weather Cam


warning for Thunderstorms more information blitzortung!


Rain radar more information rain snow radar


Visit our other weather sites:

Template documentation
and downloads

And another site



Weather Underground History page Text

Daily Summary for October 22, 2016 Units:  Metric    English   Both
« Previous Day
Next Day »
Daily Weekly Monthly Yearly Custom
  High: Low: Average:
Temperature: 12.7 °C 3.5 °C 6.6 °C
Dew Point: 9.1 °C 3.1 °C 5.5 °C
Humidity: 97 % 71 % 93 %
Wind Speed: 11.3 km/h 0.0 km/h 2.1 km/h
Wind Gust: 16.1 km/h - -
Wind:- - ENE
Pressure: 1017.8 hPa 1011.7 hPa -
Precipitation: 0.3 mm    
Historical Graphs
 
 
Tabular Data for October 22, 2016
Time Temperature Dew Point Pressure Wind Wind Speed Wind Gust Humidity Rainfall Rate (Hourly)
00:02 6.6 °C 6.0 °C 1017.8 hPa Calm     96 % 0.0 mm
00:17 6.3 °C 5.7 °C 1017.8 hPa Calm     96 % 0.0 mm
00:22 6.3 °C 5.7 °C 1017.5 hPa Calm     96 % 0.0 mm
00:32 6.0 °C 5.3 °C 1017.5 hPa Calm     95 % 0.0 mm
00:37 5.8 °C 5.2 °C 1017.5 hPa Calm     96 % 0.0 mm
00:42 5.7 °C 5.1 °C 1017.5 hPa Calm     96 % 0.0 mm
00:52 5.9 °C 5.3 °C 1017.5 hPa Calm     96 % 0.0 mm
01:02 6.0 °C 5.6 °C 1017.5 hPa Calm     97 % 0.0 mm
01:12 5.6 °C 5.0 °C 1017.5 hPa Calm     96 % 0.0 mm
01:22 5.4 °C 4.8 °C 1017.5 hPa Calm     96 % 0.0 mm
01:27 5.3 °C 4.7 °C 1017.5 hPa Calm     96 % 0.0 mm
01:42 5.3 °C 4.7 °C 1017.2 hPa Calm     96 % 0.0 mm
01:47 5.2 °C 4.6 °C 1017.2 hPa Calm     96 % 0.0 mm
01:52 5.1 °C 4.5 °C 1017.2 hPa Calm     96 % 0.0 mm
01:57 5.1 °C 4.5 °C 1017.2 hPa Calm     96 % 0.0 mm
02:02 5.0 °C 4.4 °C 1017.2 hPa Calm     96 % 0.0 mm
02:07 4.9 °C 4.3 °C 1017.2 hPa Calm     96 % 0.0 mm
02:12 4.9 °C 4.3 °C 1017.2 hPa Calm     96 % 0.0 mm
02:17 5.0 °C 4.6 °C 1016.8 hPa Calm     97 % 0.0 mm
02:27 4.8 °C 4.2 °C 1016.8 hPa Calm     96 % 0.0 mm
02:32 4.8 °C 4.4 °C 1016.8 hPa North 1.6 km/h 3.2 km/h 97 % 0.0 mm
02:42 5.1 °C 4.7 °C 1016.8 hPa Calm   3.2 km/h 97 % 0.0 mm
02:47 5.2 °C 4.8 °C 1016.8 hPa Calm   3.2 km/h 97 % 0.0 mm
02:52 4.9 °C 4.3 °C 1016.8 hPa Calm   3.2 km/h 96 % 0.0 mm
02:57 4.7 °C 4.1 °C 1016.8 hPa Calm   3.2 km/h 96 % 0.0 mm
03:02 4.6 °C 4.0 °C 1016.8 hPa Calm     96 % 0.0 mm
03:07 4.6 °C 4.0 °C 1016.8 hPa Calm     96 % 0.0 mm
03:17 4.6 °C 4.2 °C 1016.8 hPa Calm     97 % 0.0 mm
03:22 4.4 °C 3.8 °C 1016.8 hPa Calm     96 % 0.0 mm
03:27 4.4 °C 4.0 °C 1016.8 hPa Calm     97 % 0.0 mm
03:32 4.4 °C 4.0 °C 1016.8 hPa Calm     97 % 0.0 mm
03:37 4.2 °C 3.8 °C 1016.8 hPa Calm     97 % 0.0 mm
03:42 4.2 °C 3.8 °C 1016.5 hPa Calm     97 % 0.0 mm
03:47 4.2 °C 3.8 °C 1016.5 hPa Calm     97 % 0.0 mm
03:52 4.2 °C 3.8 °C 1016.5 hPa Calm     97 % 0.0 mm
04:02 4.0 °C 3.6 °C 1016.5 hPa Calm     97 % 0.0 mm
04:07 4.1 °C 3.7 °C 1016.5 hPa Calm     97 % 0.0 mm
04:12 4.2 °C 3.8 °C 1016.5 hPa Calm     97 % 0.0 mm
04:17 4.3 °C 3.9 °C 1016.5 hPa Calm     97 % 0.0 mm
04:22 4.4 °C 4.0 °C 1016.1 hPa Calm     97 % 0.0 mm
04:27 4.4 °C 4.0 °C 1016.1 hPa Calm     97 % 0.0 mm
04:32 4.4 °C 4.0 °C 1016.1 hPa Calm     97 % 0.0 mm
04:37 4.3 °C 3.9 °C 1016.1 hPa Calm     97 % 0.0 mm
04:42 4.2 °C 3.6 °C 1016.1 hPa Calm     96 % 0.3 mm
04:47 4.0 °C 3.4 °C 1016.1 hPa Calm     96 % 0.3 mm
04:52 4.0 °C 3.4 °C 1016.1 hPa Calm     96 % 0.3 mm
04:57 3.9 °C 3.5 °C 1016.1 hPa Calm     97 % 0.3 mm
05:02 3.9 °C 3.5 °C 1016.1 hPa Calm     97 % 0.3 mm
05:07 3.9 °C 3.5 °C 1016.1 hPa Calm     97 % 0.3 mm
05:12 4.0 °C 3.6 °C 1016.1 hPa Calm     97 % 0.3 mm
05:17 3.9 °C 3.5 °C 1016.1 hPa Calm     97 % 0.3 mm
05:22 3.8 °C 3.4 °C 1016.1 hPa Calm     97 % 0.3 mm
05:27 3.7 °C 3.3 °C 1016.1 hPa Calm     97 % 0.3 mm
05:32 3.7 °C 3.3 °C 1016.1 hPa Calm     97 % 0.3 mm
05:37 3.7 °C 3.3 °C 1016.1 hPa Calm     97 % 0.3 mm
05:42 3.6 °C 3.2 °C 1016.1 hPa Calm     97 % 0.0 mm
05:47 3.7 °C 3.3 °C 1016.1 hPa Calm     97 % 0.0 mm
05:52 3.7 °C 3.3 °C 1016.1 hPa Calm     97 % 0.0 mm
05:57 3.7 °C 3.3 °C 1016.1 hPa Calm     97 % 0.0 mm
06:02 3.7 °C 3.3 °C 1016.1 hPa Calm     97 % 0.0 mm
06:07 3.7 °C 3.3 °C 1016.1 hPa Calm     97 % 0.0 mm
06:12 3.7 °C 3.3 °C 1016.1 hPa Calm     97 % 0.0 mm
06:17 3.7 °C 3.3 °C 1016.1 hPa Calm     97 % 0.0 mm
06:22 3.6 °C 3.2 °C 1016.1 hPa Calm     97 % 0.0 mm
06:32 3.7 °C 3.3 °C 1016.1 hPa Calm     97 % 0.0 mm
06:42 3.7 °C 3.3 °C 1016.1 hPa Calm     97 % 0.0 mm
06:47 3.7 °C 3.3 °C 1016.1 hPa Calm     97 % 0.0 mm
06:52 3.7 °C 3.3 °C 1016.1 hPa Calm     97 % 0.0 mm
07:02 3.7 °C 3.3 °C 1016.1 hPa Calm     97 % 0.0 mm
07:12 3.6 °C 3.2 °C 1015.8 hPa Calm     97 % 0.0 mm
07:17 3.6 °C 3.2 °C 1015.8 hPa Calm     97 % 0.0 mm
07:22 3.7 °C 3.3 °C 1016.1 hPa Calm     97 % 0.0 mm
07:27 3.7 °C 3.3 °C 1015.8 hPa Calm     97 % 0.0 mm
07:32 3.7 °C 3.3 °C 1015.8 hPa Calm     97 % 0.0 mm
07:37 3.7 °C 3.3 °C 1015.8 hPa Calm     97 % 0.0 mm
07:42 3.7 °C 3.3 °C 1015.8 hPa Calm     97 % 0.0 mm
07:47 3.7 °C 3.3 °C 1015.8 hPa Calm     97 % 0.0 mm
07:52 3.7 °C 3.3 °C 1015.8 hPa Calm     97 % 0.0 mm
07:57 3.7 °C 3.3 °C 1015.8 hPa Calm     97 % 0.0 mm
08:02 3.7 °C 3.3 °C 1015.8 hPa Calm     97 % 0.0 mm
08:07 3.7 °C 3.3 °C 1016.1 hPa Calm     97 % 0.0 mm
08:12 3.7 °C 3.3 °C 1015.8 hPa Calm     97 % 0.0 mm
08:17 3.6 °C 3.2 °C 1015.8 hPa Calm     97 % 0.0 mm
08:22 3.6 °C 3.2 °C 1015.8 hPa Calm     97 % 0.0 mm
08:32 3.6 °C 3.2 °C 1015.8 hPa Calm     97 % 0.0 mm
08:37 3.6 °C 3.2 °C 1015.8 hPa Calm     97 % 0.0 mm
08:42 3.6 °C 3.2 °C 1015.8 hPa Calm     97 % 0.0 mm
08:47 3.5 °C 3.1 °C 1015.8 hPa Calm     97 % 0.0 mm
08:57 3.6 °C 3.2 °C 1015.8 hPa Calm     97 % 0.0 mm
09:02 3.6 °C 3.2 °C 1015.8 hPa Calm     97 % 0.0 mm
09:12 3.6 °C 3.2 °C 1016.1 hPa Calm     97 % 0.0 mm
09:17 3.6 °C 3.2 °C 1016.1 hPa Calm     97 % 0.0 mm
09:22 3.7 °C 3.3 °C 1016.1 hPa Calm     97 % 0.0 mm
09:27 3.7 °C 3.3 °C 1016.1 hPa Calm     97 % 0.0 mm
09:32 3.8 °C 3.4 °C 1016.1 hPa Calm     97 % 0.0 mm
09:37 3.9 °C 3.5 °C 1016.1 hPa Calm     97 % 0.0 mm
09:42 3.9 °C 3.5 °C 1016.1 hPa NE 1.6 km/h   97 % 0.0 mm
09:47 4.0 °C 3.6 °C 1016.1 hPa Calm   3.2 km/h 97 % 0.0 mm
09:52 4.1 °C 3.7 °C 1016.1 hPa Calm   3.2 km/h 97 % 0.0 mm
09:57 4.2 °C 3.8 °C 1016.1 hPa Calm   3.2 km/h 97 % 0.0 mm
10:02 4.3 °C 3.9 °C 1016.1 hPa ENE 1.6 km/h 3.2 km/h 97 % 0.0 mm
10:07 4.3 °C 3.9 °C 1015.8 hPa East 1.6 km/h 3.2 km/h 97 % 0.0 mm
10:12 4.4 °C 4.0 °C 1015.8 hPa Calm   3.2 km/h 97 % 0.0 mm
10:17 4.4 °C 4.0 °C 1015.8 hPa Calm   4.8 km/h 97 % 0.0 mm
10:22 4.4 °C 4.0 °C 1015.8 hPa NNE 1.6 km/h 4.8 km/h 97 % 0.0 mm
10:27 4.6 °C 4.2 °C 1015.8 hPa East 3.2 km/h 8.0 km/h 97 % 0.0 mm
10:32 4.6 °C 4.2 °C 1015.8 hPa ENE 3.2 km/h 8.0 km/h 97 % 0.0 mm
10:37 4.7 °C 4.3 °C 1015.8 hPa East 3.2 km/h 4.8 km/h 97 % 0.0 mm
10:42 4.8 °C 4.4 °C 1015.8 hPa NE 1.6 km/h 4.8 km/h 97 % 0.0 mm
10:47 4.8 °C 4.4 °C 1015.8 hPa ENE 1.6 km/h 4.8 km/h 97 % 0.0 mm
10:52 4.9 °C 4.5 °C 1015.8 hPa East 1.6 km/h 4.8 km/h 97 % 0.0 mm
10:57 4.9 °C 4.5 °C 1015.8 hPa NE 1.6 km/h 4.8 km/h 97 % 0.0 mm
11:02 5.0 °C 4.6 °C 1015.8 hPa Calm   4.8 km/h 97 % 0.0 mm
11:07 5.2 °C 4.8 °C 1015.8 hPa Calm   4.8 km/h 97 % 0.0 mm
11:12 5.3 °C 4.9 °C 1015.8 hPa ENE 1.6 km/h 4.8 km/h 97 % 0.0 mm
11:17 5.4 °C 5.0 °C 1015.8 hPa Calm   3.2 km/h 97 % 0.0 mm
11:22 5.7 °C 5.3 °C 1015.8 hPa East 3.2 km/h 3.2 km/h 97 % 0.0 mm
11:37 5.7 °C 5.3 °C 1015.5 hPa NE 4.8 km/h 6.4 km/h 97 % 0.0 mm
11:42 5.8 °C 5.4 °C 1015.8 hPa NE 1.6 km/h 6.4 km/h 97 % 0.0 mm
11:47 5.9 °C 5.5 °C 1015.8 hPa ENE 3.2 km/h 6.4 km/h 97 % 0.0 mm
11:57 5.9 °C 5.5 °C 1015.8 hPa NE 3.2 km/h 4.8 km/h 97 % 0.0 mm
12:02 6.2 °C 5.8 °C 1015.8 hPa NE 3.2 km/h 4.8 km/h 97 % 0.0 mm
12:12 6.3 °C 5.9 °C 1015.8 hPa Calm   6.4 km/h 97 % 0.0 mm
12:17 6.4 °C 6.0 °C 1015.8 hPa ENE 4.8 km/h 4.8 km/h 97 % 0.0 mm
12:22 6.5 °C 6.1 °C 1015.8 hPa East 1.6 km/h 6.4 km/h 97 % 0.0 mm
12:27 6.6 °C 6.2 °C 1015.5 hPa Calm   6.4 km/h 97 % 0.0 mm
12:32 6.9 °C 6.5 °C 1015.5 hPa East 3.2 km/h 6.4 km/h 97 % 0.0 mm
12:37 6.9 °C 6.5 °C 1015.5 hPa Calm   6.4 km/h 97 % 0.0 mm
12:42 7.1 °C 6.7 °C 1015.5 hPa Calm   3.2 km/h 97 % 0.0 mm
12:47 7.3 °C 6.9 °C 1015.5 hPa SSE 1.6 km/h 3.2 km/h 97 % 0.0 mm
12:52 7.3 °C 6.9 °C 1015.5 hPa South 3.2 km/h 4.8 km/h 97 % 0.0 mm
12:57 7.3 °C 6.9 °C 1015.5 hPa South 1.6 km/h 4.8 km/h 97 % 0.0 mm
13:02 7.3 °C 6.9 °C 1015.5 hPa SSW 1.6 km/h 4.8 km/h 97 % 0.0 mm
13:17 7.6 °C 7.2 °C 1015.5 hPa ESE 1.6 km/h 3.2 km/h 97 % 0.0 mm
13:22 7.5 °C 7.1 °C 1015.5 hPa ENE 3.2 km/h 3.2 km/h 97 % 0.0 mm
13:27 7.2 °C 6.6 °C 1015.5 hPa Calm   6.4 km/h 96 % 0.0 mm
13:32 7.4 °C 7.0 °C 1015.5 hPa SE 1.6 km/h 6.4 km/h 97 % 0.0 mm
13:37 7.4 °C 7.0 °C 1015.5 hPa Calm   6.4 km/h 97 % 0.0 mm
13:47 7.4 °C 7.0 °C 1015.5 hPa ESE 1.6 km/h 6.4 km/h 97 % 0.0 mm
13:52 7.4 °C 7.0 °C 1015.1 hPa ENE 4.8 km/h 6.4 km/h 97 % 0.0 mm
13:57 7.5 °C 7.1 °C 1015.1 hPa Calm   6.4 km/h 97 % 0.0 mm
14:02 7.5 °C 7.1 °C 1015.1 hPa ESE 1.6 km/h 6.4 km/h 97 % 0.0 mm
14:12 7.9 °C 7.5 °C 1015.1 hPa Calm   6.4 km/h 97 % 0.0 mm
14:17 8.0 °C 7.6 °C 1015.1 hPa Calm   3.2 km/h 97 % 0.0 mm
14:22 8.2 °C 7.8 °C 1015.1 hPa East 3.2 km/h 3.2 km/h 97 % 0.0 mm
14:27 8.4 °C 8.0 °C 1014.8 hPa SE 1.6 km/h 6.4 km/h 97 % 0.0 mm
14:32 8.9 °C 8.4 °C 1014.8 hPa Calm   6.4 km/h 97 % 0.0 mm
14:42 9.6 °C 9.1 °C 1014.8 hPa SSW 4.8 km/h 6.4 km/h 97 % 0.0 mm
14:47 9.5 °C 8.6 °C 1014.8 hPa Calm   6.4 km/h 94 % 0.0 mm
14:52 9.8 °C 9.0 °C 1014.4 hPa Calm   6.4 km/h 95 % 0.0 mm
14:57 10.1 °C 9.0 °C 1014.4 hPa South 1.6 km/h 6.4 km/h 93 % 0.0 mm
15:02 10.1 °C 8.4 °C 1014.4 hPa Calm   6.4 km/h 89 % 0.0 mm
15:07 10.2 °C 8.5 °C 1014.4 hPa Calm   4.8 km/h 89 % 0.0 mm
15:12 10.3 °C 8.4 °C 1014.4 hPa SE 1.6 km/h 4.8 km/h 88 % 0.0 mm
15:17 10.2 °C 8.1 °C 1014.1 hPa ESE 1.6 km/h 6.4 km/h 87 % 0.0 mm
15:22 10.6 °C 8.5 °C 1014.1 hPa Calm   6.4 km/h 87 % 0.0 mm
15:32 11.1 °C 8.7 °C 1014.1 hPa Calm   4.8 km/h 85 % 0.0 mm
15:47 11.4 °C 8.4 °C 1013.8 hPa ENE 3.2 km/h 9.7 km/h 82 % 0.0 mm
15:52 11.5 °C 8.5 °C 1013.8 hPa ENE 4.8 km/h 9.7 km/h 82 % 0.0 mm
15:57 11.4 °C 8.1 °C 1013.8 hPa Calm   8.0 km/h 80 % 0.0 mm
16:02 11.6 °C 8.5 °C 1013.8 hPa ENE 8.0 km/h 8.0 km/h 81 % 0.0 mm
16:12 11.8 °C 8.5 °C 1013.8 hPa ENE 6.4 km/h 9.7 km/h 80 % 0.0 mm
16:17 11.9 °C 8.0 °C 1013.4 hPa ENE 3.2 km/h 9.7 km/h 77 % 0.0 mm
16:22 12.0 °C 8.1 °C 1013.4 hPa ENE 6.4 km/h 9.7 km/h 77 % 0.0 mm
16:27 11.9 °C 7.6 °C 1013.4 hPa NE 8.0 km/h 14.5 km/h 75 % 0.0 mm
16:32 11.9 °C 8.0 °C 1013.4 hPa ENE 9.7 km/h 14.5 km/h 77 % 0.0 mm
16:37 11.9 °C 8.0 °C 1013.4 hPa NNE 4.8 km/h 14.5 km/h 77 % 0.0 mm
16:42 12.0 °C 8.1 °C 1013.4 hPa ENE 9.7 km/h 14.5 km/h 77 % 0.0 mm
16:47 12.1 °C 8.2 °C 1013.1 hPa East 6.4 km/h 11.3 km/h 77 % 0.0 mm
16:52 12.2 °C 8.3 °C 1013.1 hPa NE 3.2 km/h 11.3 km/h 77 % 0.0 mm
17:02 12.3 °C 8.2 °C 1013.1 hPa ENE 9.7 km/h 11.3 km/h 76 % 0.0 mm
17:12 12.5 °C 8.0 °C 1013.1 hPa NE 6.4 km/h 14.5 km/h 74 % 0.0 mm
17:32 12.6 °C 7.5 °C 1013.1 hPa ENE 4.8 km/h 12.9 km/h 71 % 0.0 mm
17:37 12.7 °C 7.6 °C 1013.1 hPa ENE 1.6 km/h 12.9 km/h 71 % 0.0 mm
17:42 12.7 °C 7.6 °C 1013.1 hPa NE 4.8 km/h 12.9 km/h 71 % 0.0 mm
17:52 12.6 °C 7.5 °C 1013.1 hPa ENE 9.7 km/h 12.9 km/h 71 % 0.0 mm
17:57 12.5 °C 7.6 °C 1013.1 hPa NE 4.8 km/h 14.5 km/h 72 % 0.0 mm
18:02 12.3 °C 7.2 °C 1013.1 hPa ENE 8.0 km/h 14.5 km/h 71 % 0.0 mm
18:07 12.3 °C 7.2 °C 1013.1 hPa East 8.0 km/h 12.9 km/h 71 % 0.0 mm
18:12 12.1 °C 7.2 °C 1013.1 hPa ENE 3.2 km/h 12.9 km/h 72 % 0.0 mm
18:22 11.8 °C 7.3 °C 1013.1 hPa ENE 3.2 km/h 11.3 km/h 74 % 0.0 mm
18:32 11.4 °C 7.3 °C 1012.8 hPa East 4.8 km/h 8.0 km/h 76 % 0.0 mm
18:42 10.9 °C 7.2 °C 1012.8 hPa ENE 3.2 km/h 8.0 km/h 78 % 0.0 mm
18:47 10.7 °C 7.4 °C 1012.8 hPa ENE 1.6 km/h 8.0 km/h 80 % 0.0 mm
18:52 10.5 °C 7.2 °C 1012.8 hPa ENE 1.6 km/h 4.8 km/h 80 % 0.0 mm
18:57 10.3 °C 7.2 °C 1012.8 hPa Calm   8.0 km/h 81 % 0.0 mm
19:02 10.1 °C 7.2 °C 1012.8 hPa ENE 3.2 km/h 8.0 km/h 82 % 0.0 mm
19:07 9.9 °C 7.1 °C 1012.8 hPa NE 1.6 km/h 4.8 km/h 83 % 0.0 mm
19:17 9.7 °C 7.1 °C 1012.8 hPa NNE 3.2 km/h 8.0 km/h 84 % 0.0 mm
19:22 9.7 °C 7.1 °C 1012.8 hPa NE 3.2 km/h 8.0 km/h 84 % 0.0 mm
19:32 9.5 °C 7.1 °C 1012.8 hPa Calm   9.7 km/h 85 % 0.0 mm
19:37 9.4 °C 7.0 °C 1012.8 hPa NE 1.6 km/h 8.0 km/h 85 % 0.0 mm
19:42 9.3 °C 7.1 °C 1012.8 hPa NE 1.6 km/h 8.0 km/h 86 % 0.0 mm
19:47 9.1 °C 6.9 °C 1012.8 hPa NE 1.6 km/h 3.2 km/h 86 % 0.0 mm
19:52 9.1 °C 7.1 °C 1012.8 hPa NE 3.2 km/h 3.2 km/h 87 % 0.0 mm
19:57 8.9 °C 6.9 °C 1012.8 hPa NE 1.6 km/h 3.2 km/h 87 % 0.0 mm
20:02 8.8 °C 6.8 °C 1012.8 hPa NE 3.2 km/h 3.2 km/h 87 % 0.0 mm
20:07 8.8 °C 6.8 °C 1012.8 hPa NE 4.8 km/h 4.8 km/h 87 % 0.0 mm
20:17 8.9 °C 6.9 °C 1012.8 hPa NNE 4.8 km/h 11.3 km/h 87 % 0.0 mm
20:27 8.7 °C 6.7 °C 1012.8 hPa NE 6.4 km/h 11.3 km/h 87 % 0.0 mm
20:37 8.6 °C 6.7 °C 1012.8 hPa NNE 6.4 km/h 9.7 km/h 88 % 0.0 mm
20:42 8.7 °C 6.8 °C 1012.8 hPa NNE 6.4 km/h 9.7 km/h 88 % 0.0 mm
20:47 8.7 °C 6.8 °C 1012.8 hPa NNE 6.4 km/h 11.3 km/h 88 % 0.0 mm
20:52 8.7 °C 6.8 °C 1012.8 hPa NE 9.7 km/h 11.3 km/h 88 % 0.0 mm
20:57 8.7 °C 7.0 °C 1012.8 hPa NE 9.7 km/h 12.9 km/h 89 % 0.0 mm
21:02 8.6 °C 6.9 °C 1012.8 hPa North 9.7 km/h 12.9 km/h 89 % 0.0 mm
21:12 8.6 °C 7.1 °C 1012.8 hPa NE 9.7 km/h 12.9 km/h 90 % 0.0 mm
21:17 8.4 °C 6.9 °C 1012.8 hPa NE 8.0 km/h 12.9 km/h 90 % 0.0 mm
21:22 8.4 °C 7.0 °C 1012.8 hPa NE 9.7 km/h 12.9 km/h 91 % 0.0 mm
21:32 8.4 °C 7.0 °C 1012.8 hPa ENE 9.7 km/h 14.5 km/h 91 % 0.0 mm
21:42 8.3 °C 6.9 °C 1012.8 hPa NE 9.7 km/h 14.5 km/h 91 % 0.0 mm
21:47 8.2 °C 6.8 °C 1012.8 hPa NNE 6.4 km/h 16.1 km/h 91 % 0.0 mm
21:52 8.1 °C 6.7 °C 1012.4 hPa NE 8.0 km/h 16.1 km/h 91 % 0.0 mm
22:02 8.0 °C 6.8 °C 1012.8 hPa NE 9.7 km/h 12.9 km/h 92 % 0.0 mm
22:12 7.9 °C 6.7 °C 1012.8 hPa ENE 11.3 km/h 14.5 km/h 92 % 0.0 mm
22:22 7.8 °C 6.6 °C 1012.8 hPa NE 9.7 km/h 14.5 km/h 92 % 0.0 mm
22:27 7.7 °C 6.5 °C 1012.4 hPa NE 11.3 km/h 12.9 km/h 92 % 0.0 mm
22:32 7.7 °C 6.6 °C 1012.4 hPa NNE 8.0 km/h 12.9 km/h 93 % 0.0 mm
22:42 7.6 °C 6.4 °C 1012.4 hPa NNE 8.0 km/h 14.5 km/h 92 % 0.0 mm
22:47 7.5 °C 6.3 °C 1012.4 hPa NNE 4.8 km/h 12.9 km/h 92 % 0.0 mm
22:57 7.2 °C 6.0 °C 1012.1 hPa NE 4.8 km/h 11.3 km/h 92 % 0.0 mm
23:02 7.1 °C 6.0 °C 1012.1 hPa NE 4.8 km/h 11.3 km/h 93 % 0.0 mm
23:07 7.0 °C 5.9 °C 1012.1 hPa NE 4.8 km/h 9.7 km/h 93 % 0.0 mm
23:17 6.8 °C 5.7 °C 1012.1 hPa NE 3.2 km/h 8.0 km/h 93 % 0.0 mm
23:22 6.8 °C 5.7 °C 1012.1 hPa NE 4.8 km/h 8.0 km/h 93 % 0.0 mm
23:32 6.8 °C 5.7 °C 1012.1 hPa NE 1.6 km/h 8.0 km/h 93 % 0.0 mm
23:42 6.7 °C 5.6 °C 1012.1 hPa NE 1.6 km/h 8.0 km/h 93 % 0.0 mm
23:52 6.5 °C 5.4 °C 1011.7 hPa NNE 3.2 km/h 4.8 km/h 93 % 0.0 mm
23:57 6.4 °C 5.4 °C 1011.7 hPa Calm   6.4 km/h 93 % 0.0 mm
Meteo18
Compliments of Weather Underground - 4 mb

Script developed by  Jim McMurry - jmcmurry@mwt.net Adapted for the template by  Wim van der Kuil - Leuven-Template.eu

You find our weather info also at:

European Weather Network

Weather Underground

Equipment we use:

Weather-station
Davis Vue

Weather-program
Meteohub

Weather-server
Raspberry PI 2 B+

Provider
1 and 1

Davis Vue

Meteohub

Raspberry PI 2 B+

1 and 1